sensor_id;sensor_type;location;lat;lon;timestamp;P1;durP1;ratioP1;P2;durP2;ratioP2
12314;SDS011;23886;46.614;14.276;2023-03-01T00:01:12;17.33;;;13.57;;
12314;SDS011;23886;46.614;14.276;2023-03-01T00:03:41;15.17;;;13.53;;
12314;SDS011;23886;46.614;14.276;2023-03-01T00:06:09;14.63;;;12.10;;
12314;SDS011;23886;46.614;14.276;2023-03-01T00:08:36;14.50;;;12.63;;
12314;SDS011;23886;46.614;14.276;2023-03-01T00:11:04;17.47;;;13.63;;
12314;SDS011;23886;46.614;14.276;2023-03-01T00:13:32;15.37;;;13.10;;
12314;SDS011;23886;46.614;14.276;2023-03-01T00:16:01;16.10;;;13.40;;
12314;SDS011;23886;46.614;14.276;2023-03-01T00:18:30;16.17;;;13.30;;
12314;SDS011;23886;46.614;14.276;2023-03-01T00:20:58;13.93;;;11.87;;
12314;SDS011;23886;46.614;14.276;2023-03-01T00:23:26;16.87;;;12.73;;
12314;SDS011;23886;46.614;14.276;2023-03-01T00:25:53;17.57;;;12.83;;
12314;SDS011;23886;46.614;14.276;2023-03-01T00:28:20;16.03;;;12.87;;
12314;SDS011;23886;46.614;14.276;2023-03-01T00:30:47;16.40;;;13.07;;
12314;SDS011;23886;46.614;14.276;2023-03-01T00:33:14;17.23;;;13.27;;
12314;SDS011;23886;46.614;14.276;2023-03-01T00:35:42;15.40;;;12.63;;
12314;SDS011;23886;46.614;14.276;2023-03-01T00:38:10;15.67;;;13.13;;
12314;SDS011;23886;46.614;14.276;2023-03-01T00:40:37;15.20;;;13.53;;
12314;SDS011;23886;46.614;14.276;2023-03-01T00:43:04;16.23;;;14.00;;
12314;SDS011;23886;46.614;14.276;2023-03-01T00:45:32;15.90;;;13.70;;
12314;SDS011;23886;46.614;14.276;2023-03-01T00:47:59;14.77;;;13.13;;
12314;SDS011;23886;46.614;14.276;2023-03-01T00:50:26;16.10;;;13.10;;
12314;SDS011;23886;46.614;14.276;2023-03-01T00:52:55;15.03;;;12.73;;
12314;SDS011;23886;46.614;14.276;2023-03-01T00:55:22;16.90;;;14.43;;
12314;SDS011;23886;46.614;14.276;2023-03-01T00:57:50;16.23;;;13.37;;
12314;SDS011;23886;46.614;14.276;2023-03-01T01:00:18;14.97;;;12.63;;
12314;SDS011;23886;46.614;14.276;2023-03-01T01:02:45;17.23;;;13.30;;
12314;SDS011;23886;46.614;14.276;2023-03-01T01:05:13;17.37;;;13.77;;
12314;SDS011;23886;46.614;14.276;2023-03-01T01:07:40;16.83;;;14.17;;
12314;SDS011;23886;46.614;14.276;2023-03-01T01:10:09;15.43;;;13.20;;
12314;SDS011;23886;46.614;14.276;2023-03-01T01:12:42;17.70;;;14.40;;
12314;SDS011;23886;46.614;14.276;2023-03-01T01:15:10;16.17;;;13.70;;
12314;SDS011;23886;46.614;14.276;2023-03-01T01:17:39;15.37;;;12.80;;
12314;SDS011;23886;46.614;14.276;2023-03-01T01:20:06;15.07;;;13.47;;
12314;SDS011;23886;46.614;14.276;2023-03-01T01:22:34;16.83;;;13.87;;
12314;SDS011;23886;46.614;14.276;2023-03-01T01:25:01;17.23;;;14.07;;
12314;SDS011;23886;46.614;14.276;2023-03-01T01:27:30;16.57;;;14.30;;
12314;SDS011;23886;46.614;14.276;2023-03-01T01:29:57;16.23;;;13.73;;
12314;SDS011;23886;46.614;14.276;2023-03-01T01:32:24;17.33;;;13.73;;
12314;SDS011;23886;46.614;14.276;2023-03-01T01:34:51;15.37;;;13.47;;
12314;SDS011;23886;46.614;14.276;2023-03-01T01:37:18;18.77;;;14.50;;
12314;SDS011;23886;46.614;14.276;2023-03-01T01:39:45;14.77;;;13.07;;
12314;SDS011;23886;46.614;14.276;2023-03-01T01:42:12;16.17;;;13.93;;
12314;SDS011;23886;46.614;14.276;2023-03-01T01:44:44;15.60;;;13.60;;
12314;SDS011;23886;46.614;14.276;2023-03-01T01:47:14;15.00;;;13.43;;
12314;SDS011;23886;46.614;14.276;2023-03-01T01:49:44;16.33;;;13.43;;
12314;SDS011;23886;46.614;14.276;2023-03-01T01:52:16;17.57;;;13.13;;
12314;SDS011;23886;46.614;14.276;2023-03-01T01:54:47;15.90;;;13.60;;
12314;SDS011;23886;46.614;14.276;2023-03-01T01:57:18;14.80;;;12.43;;
12314;SDS011;23886;46.614;14.276;2023-03-01T01:59:50;16.53;;;13.47;;
12314;SDS011;23886;46.614;14.276;2023-03-01T02:02:20;17.27;;;13.97;;
12314;SDS011;23886;46.614;14.276;2023-03-01T02:04:47;15.13;;;12.80;;
12314;SDS011;23886;46.614;14.276;2023-03-01T02:07:17;16.33;;;13.87;;
12314;SDS011;23886;46.614;14.276;2023-03-01T02:09:47;14.23;;;12.73;;
12314;SDS011;23886;46.614;14.276;2023-03-01T02:12:16;17.07;;;13.27;;
12314;SDS011;23886;46.614;14.276;2023-03-01T02:14:44;16.20;;;14.50;;
12314;SDS011;23886;46.614;14.276;2023-03-01T02:17:13;16.77;;;14.00;;
12314;SDS011;23886;46.614;14.276;2023-03-01T02:19:44;17.60;;;14.30;;
12314;SDS011;23886;46.614;14.276;2023-03-01T02:22:20;16.97;;;13.70;;
12314;SDS011;23886;46.614;14.276;2023-03-01T02:24:54;16.63;;;13.83;;
12314;SDS011;23886;46.614;14.276;2023-03-01T02:27:33;18.57;;;15.03;;
12314;SDS011;23886;46.614;14.276;2023-03-01T02:30:07;20.77;;;15.80;;
12314;SDS011;23886;46.614;14.276;2023-03-01T02:32:37;17.53;;;15.67;;
12314;SDS011;23886;46.614;14.276;2023-03-01T02:35:06;18.13;;;16.00;;
12314;SDS011;23886;46.614;14.276;2023-03-01T02:37:36;19.50;;;15.20;;
12314;SDS011;23886;46.614;14.276;2023-03-01T02:40:05;18.80;;;15.97;;
12314;SDS011;23886;46.614;14.276;2023-03-01T02:42:38;19.97;;;15.27;;
12314;SDS011;23886;46.614;14.276;2023-03-01T02:45:13;18.97;;;15.47;;
12314;SDS011;23886;46.614;14.276;2023-03-01T02:47:40;20.13;;;16.00;;
12314;SDS011;23886;46.614;14.276;2023-03-01T02:50:12;20.23;;;14.87;;
12314;SDS011;23886;46.614;14.276;2023-03-01T02:52:50;17.77;;;14.37;;
12314;SDS011;23886;46.614;14.276;2023-03-01T02:55:24;17.97;;;14.33;;
12314;SDS011;23886;46.614;14.276;2023-03-01T02:57:52;16.33;;;13.60;;
12314;SDS011;23886;46.614;14.276;2023-03-01T03:00:22;17.03;;;14.70;;
12314;SDS011;23886;46.614;14.276;2023-03-01T03:02:53;16.20;;;13.83;;
12314;SDS011;23886;46.614;14.276;2023-03-01T03:05:23;17.30;;;14.20;;
12314;SDS011;23886;46.614;14.276;2023-03-01T03:07:52;16.43;;;14.10;;
12314;SDS011;23886;46.614;14.276;2023-03-01T03:10:21;17.77;;;13.97;;
12314;SDS011;23886;46.614;14.276;2023-03-01T03:12:50;17.93;;;14.77;;
12314;SDS011;23886;46.614;14.276;2023-03-01T03:15:18;18.83;;;14.23;;
12314;SDS011;23886;46.614;14.276;2023-03-01T03:17:47;16.43;;;13.93;;
12314;SDS011;23886;46.614;14.276;2023-03-01T03:20:15;20.90;;;14.77;;
12314;SDS011;23886;46.614;14.276;2023-03-01T03:22:45;16.67;;;13.83;;
12314;SDS011;23886;46.614;14.276;2023-03-01T03:25:12;17.17;;;14.13;;
12314;SDS011;23886;46.614;14.276;2023-03-01T03:27:40;16.80;;;13.70;;
12314;SDS011;23886;46.614;14.276;2023-03-01T03:30:09;16.43;;;13.87;;
12314;SDS011;23886;46.614;14.276;2023-03-01T03:32:38;16.90;;;13.63;;
12314;SDS011;23886;46.614;14.276;2023-03-01T03:35:08;16.47;;;13.80;;
12314;SDS011;23886;46.614;14.276;2023-03-01T03:37:36;15.73;;;13.30;;
12314;SDS011;23886;46.614;14.276;2023-03-01T03:40:20;16.03;;;13.33;;
12314;SDS011;23886;46.614;14.276;2023-03-01T03:42:47;16.60;;;13.13;;
12314;SDS011;23886;46.614;14.276;2023-03-01T03:45:15;15.87;;;13.10;;
12314;SDS011;23886;46.614;14.276;2023-03-01T03:47:42;16.60;;;14.07;;
12314;SDS011;23886;46.614;14.276;2023-03-01T03:50:12;17.27;;;13.93;;
12314;SDS011;23886;46.614;14.276;2023-03-01T03:52:40;17.97;;;14.73;;
12314;SDS011;23886;46.614;14.276;2023-03-01T03:55:08;15.60;;;13.53;;
12314;SDS011;23886;46.614;14.276;2023-03-01T03:57:37;17.80;;;13.33;;
12314;SDS011;23886;46.614;14.276;2023-03-01T04:00:05;18.20;;;15.13;;
12314;SDS011;23886;46.614;14.276;2023-03-01T04:02:37;16.47;;;13.87;;
12314;SDS011;23886;46.614;14.276;2023-03-01T04:05:05;15.90;;;13.77;;
12314;SDS011;23886;46.614;14.276;2023-03-01T04:07:35;17.30;;;14.30;;
12314;SDS011;23886;46.614;14.276;2023-03-01T04:10:04;17.27;;;14.07;;
12314;SDS011;23886;46.614;14.276;2023-03-01T04:12:33;18.50;;;14.63;;
12314;SDS011;23886;46.614;14.276;2023-03-01T04:15:00;20.33;;;16.20;;
12314;SDS011;23886;46.614;14.276;2023-03-01T04:17:28;16.83;;;14.57;;
12314;SDS011;23886;46.614;14.276;2023-03-01T04:19:55;19.57;;;15.27;;
12314;SDS011;23886;46.614;14.276;2023-03-01T04:22:22;20.07;;;14.60;;
12314;SDS011;23886;46.614;14.276;2023-03-01T04:24:56;17.40;;;14.80;;
12314;SDS011;23886;46.614;14.276;2023-03-01T04:27:23;17.60;;;15.53;;
12314;SDS011;23886;46.614;14.276;2023-03-01T04:29:50;17.57;;;14.87;;
12314;SDS011;23886;46.614;14.276;2023-03-01T04:32:17;17.80;;;13.97;;
12314;SDS011;23886;46.614;14.276;2023-03-01T04:34:44;17.00;;;15.20;;
12314;SDS011;23886;46.614;14.276;2023-03-01T04:37:11;17.90;;;15.97;;
12314;SDS011;23886;46.614;14.276;2023-03-01T04:39:37;20.60;;;17.20;;
12314;SDS011;23886;46.614;14.276;2023-03-01T04:42:11;20.77;;;17.97;;
12314;SDS011;23886;46.614;14.276;2023-03-01T04:44:38;19.03;;;16.90;;
12314;SDS011;23886;46.614;14.276;2023-03-01T04:47:05;20.67;;;15.83;;
12314;SDS011;23886;46.614;14.276;2023-03-01T04:49:32;21.53;;;16.60;;
12314;SDS011;23886;46.614;14.276;2023-03-01T04:51:59;19.83;;;16.27;;
12314;SDS011;23886;46.614;14.276;2023-03-01T04:54:27;17.90;;;14.87;;
12314;SDS011;23886;46.614;14.276;2023-03-01T04:56:54;17.63;;;15.57;;
12314;SDS011;23886;46.614;14.276;2023-03-01T04:59:22;18.25;;;16.23;;
12314;SDS011;23886;46.614;14.276;2023-03-01T05:01:49;16.83;;;15.03;;
12314;SDS011;23886;46.614;14.276;2023-03-01T05:04:17;18.00;;;14.87;;
12314;SDS011;23886;46.614;14.276;2023-03-01T05:06:44;18.37;;;15.80;;
12314;SDS011;23886;46.614;14.276;2023-03-01T05:09:11;20.13;;;16.03;;
12314;SDS011;23886;46.614;14.276;2023-03-01T05:11:38;18.23;;;15.87;;
12314;SDS011;23886;46.614;14.276;2023-03-01T05:14:05;19.00;;;14.90;;
12314;SDS011;23886;46.614;14.276;2023-03-01T05:16:35;18.40;;;14.70;;
12314;SDS011;23886;46.614;14.276;2023-03-01T05:19:02;16.77;;;14.93;;
12314;SDS011;23886;46.614;14.276;2023-03-01T05:21:36;21.33;;;15.67;;
12314;SDS011;23886;46.614;14.276;2023-03-01T05:24:23;19.37;;;15.63;;
12314;SDS011;23886;46.614;14.276;2023-03-01T05:26:50;19.37;;;16.00;;
12314;SDS011;23886;46.614;14.276;2023-03-01T05:29:18;19.83;;;16.30;;
12314;SDS011;23886;46.614;14.276;2023-03-01T05:31:52;19.40;;;16.17;;
12314;SDS011;23886;46.614;14.276;2023-03-01T05:34:19;17.43;;;14.90;;
12314;SDS011;23886;46.614;14.276;2023-03-01T05:36:50;18.57;;;15.53;;
12314;SDS011;23886;46.614;14.276;2023-03-01T05:39:18;18.30;;;14.80;;
12314;SDS011;23886;46.614;14.276;2023-03-01T05:41:47;18.50;;;15.67;;
12314;SDS011;23886;46.614;14.276;2023-03-01T05:44:14;21.73;;;16.53;;
12314;SDS011;23886;46.614;14.276;2023-03-01T05:46:42;17.53;;;15.63;;
12314;SDS011;23886;46.614;14.276;2023-03-01T05:49:11;19.33;;;16.13;;
12314;SDS011;23886;46.614;14.276;2023-03-01T05:51:38;19.53;;;16.57;;
12314;SDS011;23886;46.614;14.276;2023-03-01T05:54:06;19.90;;;16.93;;
12314;SDS011;23886;46.614;14.276;2023-03-01T05:56:33;22.87;;;17.57;;
12314;SDS011;23886;46.614;14.276;2023-03-01T05:59:00;23.77;;;18.30;;
12314;SDS011;23886;46.614;14.276;2023-03-01T06:01:28;23.77;;;18.43;;
12314;SDS011;23886;46.614;14.276;2023-03-01T06:03:55;24.53;;;19.50;;
12314;SDS011;23886;46.614;14.276;2023-03-01T06:06:24;24.87;;;20.27;;
12314;SDS011;23886;46.614;14.276;2023-03-01T06:08:51;24.33;;;20.10;;
12314;SDS011;23886;46.614;14.276;2023-03-01T06:11:19;25.17;;;20.73;;
12314;SDS011;23886;46.614;14.276;2023-03-01T06:13:45;23.47;;;19.40;;
12314;SDS011;23886;46.614;14.276;2023-03-01T06:16:13;20.37;;;18.13;;
12314;SDS011;23886;46.614;14.276;2023-03-01T06:18:40;25.20;;;19.20;;
12314;SDS011;23886;46.614;14.276;2023-03-01T06:21:08;20.87;;;17.23;;
12314;SDS011;23886;46.614;14.276;2023-03-01T06:23:36;20.07;;;17.73;;
12314;SDS011;23886;46.614;14.276;2023-03-01T06:26:06;20.30;;;17.37;;
12314;SDS011;23886;46.614;14.276;2023-03-01T06:28:34;22.77;;;18.07;;
12314;SDS011;23886;46.614;14.276;2023-03-01T06:31:01;19.50;;;17.40;;
12314;SDS011;23886;46.614;14.276;2023-03-01T06:33:28;20.90;;;18.03;;
12314;SDS011;23886;46.614;14.276;2023-03-01T06:35:55;22.77;;;19.63;;
12314;SDS011;23886;46.614;14.276;2023-03-01T06:38:22;22.17;;;18.20;;
12314;SDS011;23886;46.614;14.276;2023-03-01T06:40:54;24.17;;;18.13;;
12314;SDS011;23886;46.614;14.276;2023-03-01T06:43:21;21.30;;;18.27;;
12314;SDS011;23886;46.614;14.276;2023-03-01T06:45:49;24.67;;;19.63;;
12314;SDS011;23886;46.614;14.276;2023-03-01T06:48:16;22.00;;;18.37;;
12314;SDS011;23886;46.614;14.276;2023-03-01T06:50:43;23.70;;;19.53;;
12314;SDS011;23886;46.614;14.276;2023-03-01T06:53:10;20.77;;;17.20;;
12314;SDS011;23886;46.614;14.276;2023-03-01T06:55:37;23.30;;;18.00;;
12314;SDS011;23886;46.614;14.276;2023-03-01T06:58:05;22.07;;;19.67;;
12314;SDS011;23886;46.614;14.276;2023-03-01T07:00:32;24.43;;;18.70;;
12314;SDS011;23886;46.614;14.276;2023-03-01T07:02:59;20.97;;;17.73;;
12314;SDS011;23886;46.614;14.276;2023-03-01T07:05:28;21.73;;;18.23;;
12314;SDS011;23886;46.614;14.276;2023-03-01T07:07:55;21.03;;;18.13;;
12314;SDS011;23886;46.614;14.276;2023-03-01T07:10:22;20.90;;;17.60;;
12314;SDS011;23886;46.614;14.276;2023-03-01T07:12:49;23.43;;;18.90;;
12314;SDS011;23886;46.614;14.276;2023-03-01T07:15:17;23.67;;;19.07;;
12314;SDS011;23886;46.614;14.276;2023-03-01T07:17:44;22.70;;;18.43;;
12314;SDS011;23886;46.614;14.276;2023-03-01T07:20:13;22.67;;;18.87;;
12314;SDS011;23886;46.614;14.276;2023-03-01T07:22:40;23.17;;;19.13;;
12314;SDS011;23886;46.614;14.276;2023-03-01T07:25:08;22.70;;;19.57;;
12314;SDS011;23886;46.614;14.276;2023-03-01T07:27:36;26.50;;;20.17;;
12314;SDS011;23886;46.614;14.276;2023-03-01T07:30:03;23.27;;;19.33;;
12314;SDS011;23886;46.614;14.276;2023-03-01T07:32:32;26.23;;;20.63;;
12314;SDS011;23886;46.614;14.276;2023-03-01T07:34:59;25.83;;;20.33;;
12314;SDS011;23886;46.614;14.276;2023-03-01T07:37:26;23.80;;;20.07;;
12314;SDS011;23886;46.614;14.276;2023-03-01T07:39:53;23.67;;;19.13;;
12314;SDS011;23886;46.614;14.276;2023-03-01T07:42:20;23.87;;;19.73;;
12314;SDS011;23886;46.614;14.276;2023-03-01T07:44:47;25.33;;;19.67;;
12314;SDS011;23886;46.614;14.276;2023-03-01T07:47:14;24.50;;;20.93;;
12314;SDS011;23886;46.614;14.276;2023-03-01T07:49:42;28.40;;;22.10;;
12314;SDS011;23886;46.614;14.276;2023-03-01T07:52:10;26.00;;;20.83;;
12314;SDS011;23886;46.614;14.276;2023-03-01T07:54:37;27.23;;;21.43;;
12314;SDS011;23886;46.614;14.276;2023-03-01T07:57:04;27.27;;;21.40;;
12314;SDS011;23886;46.614;14.276;2023-03-01T07:59:31;27.30;;;20.20;;
12314;SDS011;23886;46.614;14.276;2023-03-01T08:01:58;24.77;;;20.07;;
12314;SDS011;23886;46.614;14.276;2023-03-01T08:04:25;24.73;;;20.30;;
12314;SDS011;23886;46.614;14.276;2023-03-01T08:06:54;25.50;;;19.57;;
12314;SDS011;23886;46.614;14.276;2023-03-01T08:09:21;25.73;;;20.63;;
12314;SDS011;23886;46.614;14.276;2023-03-01T08:11:48;25.83;;;20.70;;
12314;SDS011;23886;46.614;14.276;2023-03-01T08:14:15;23.43;;;19.53;;
12314;SDS011;23886;46.614;14.276;2023-03-01T08:16:42;25.40;;;20.73;;
12314;SDS011;23886;46.614;14.276;2023-03-01T08:19:11;22.53;;;18.73;;
12314;SDS011;23886;46.614;14.276;2023-03-01T08:21:39;24.10;;;19.50;;
12314;SDS011;23886;46.614;14.276;2023-03-01T08:24:08;22.67;;;18.63;;
12314;SDS011;23886;46.614;14.276;2023-03-01T08:26:36;21.93;;;19.20;;
12314;SDS011;23886;46.614;14.276;2023-03-01T08:29:03;21.00;;;18.47;;
12314;SDS011;23886;46.614;14.276;2023-03-01T08:31:31;23.53;;;18.83;;
12314;SDS011;23886;46.614;14.276;2023-03-01T08:34:01;21.43;;;18.73;;
12314;SDS011;23886;46.614;14.276;2023-03-01T08:36:31;23.30;;;18.43;;
12314;SDS011;23886;46.614;14.276;2023-03-01T08:38:59;23.30;;;18.60;;
12314;SDS011;23886;46.614;14.276;2023-03-01T08:41:28;23.52;;;21.23;;
12314;SDS011;23886;46.614;14.276;2023-03-01T08:43:55;23.97;;;19.53;;
12314;SDS011;23886;46.614;14.276;2023-03-01T08:46:24;24.50;;;18.60;;
12314;SDS011;23886;46.614;14.276;2023-03-01T08:48:52;22.83;;;19.40;;
12314;SDS011;23886;46.614;14.276;2023-03-01T08:51:19;22.50;;;18.47;;
12314;SDS011;23886;46.614;14.276;2023-03-01T08:53:47;21.43;;;17.53;;
12314;SDS011;23886;46.614;14.276;2023-03-01T08:56:15;25.67;;;18.80;;
12314;SDS011;23886;46.614;14.276;2023-03-01T08:58:45;20.30;;;17.83;;
12314;SDS011;23886;46.614;14.276;2023-03-01T09:01:13;22.10;;;18.53;;
12314;SDS011;23886;46.614;14.276;2023-03-01T09:03:41;20.40;;;18.03;;
12314;SDS011;23886;46.614;14.276;2023-03-01T09:06:09;22.63;;;19.30;;
12314;SDS011;23886;46.614;14.276;2023-03-01T09:08:37;21.03;;;18.60;;
12314;SDS011;23886;46.614;14.276;2023-03-01T09:11:05;21.60;;;17.73;;
12314;SDS011;23886;46.614;14.276;2023-03-01T09:13:34;21.13;;;18.33;;
12314;SDS011;23886;46.614;14.276;2023-03-01T09:16:03;21.10;;;18.80;;
12314;SDS011;23886;46.614;14.276;2023-03-01T09:18:31;23.37;;;18.73;;
12314;SDS011;23886;46.614;14.276;2023-03-01T09:21:02;20.57;;;18.37;;
12314;SDS011;23886;46.614;14.276;2023-03-01T09:23:32;20.77;;;18.13;;
12314;SDS011;23886;46.614;14.276;2023-03-01T09:26:01;20.53;;;17.57;;
12314;SDS011;23886;46.614;14.276;2023-03-01T09:28:28;21.63;;;18.00;;
12314;SDS011;23886;46.614;14.276;2023-03-01T09:30:57;22.17;;;18.83;;
12314;SDS011;23886;46.614;14.276;2023-03-01T09:33:26;21.13;;;17.87;;
12314;SDS011;23886;46.614;14.276;2023-03-01T09:35:55;19.67;;;17.17;;
12314;SDS011;23886;46.614;14.276;2023-03-01T09:38:23;21.20;;;18.07;;
12314;SDS011;23886;46.614;14.276;2023-03-01T09:40:50;22.80;;;20.50;;
12314;SDS011;23886;46.614;14.276;2023-03-01T09:43:19;21.50;;;19.20;;
12314;SDS011;23886;46.614;14.276;2023-03-01T09:45:52;20.57;;;17.77;;
12314;SDS011;23886;46.614;14.276;2023-03-01T09:48:22;20.60;;;18.40;;
12314;SDS011;23886;46.614;14.276;2023-03-01T09:50:53;18.87;;;16.83;;
12314;SDS011;23886;46.614;14.276;2023-03-01T09:53:20;20.30;;;17.57;;
12314;SDS011;23886;46.614;14.276;2023-03-01T09:55:50;20.80;;;18.57;;
12314;SDS011;23886;46.614;14.276;2023-03-01T09:58:28;21.27;;;18.57;;
12314;SDS011;23886;46.614;14.276;2023-03-01T10:01:02;21.40;;;17.93;;
12314;SDS011;23886;46.614;14.276;2023-03-01T10:03:44;20.60;;;17.90;;
12314;SDS011;23886;46.614;14.276;2023-03-01T10:06:26;20.03;;;17.93;;
12314;SDS011;23886;46.614;14.276;2023-03-01T10:08:54;21.10;;;17.50;;
12314;SDS011;23886;46.614;14.276;2023-03-01T10:11:25;20.10;;;16.90;;
12314;SDS011;23886;46.614;14.276;2023-03-01T10:13:58;20.87;;;17.77;;
12314;SDS011;23886;46.614;14.276;2023-03-01T10:16:38;19.27;;;17.23;;
12314;SDS011;23886;46.614;14.276;2023-03-01T10:19:12;20.90;;;17.63;;
12314;SDS011;23886;46.614;14.276;2023-03-01T10:21:46;20.00;;;17.17;;
12314;SDS011;23886;46.614;14.276;2023-03-01T10:24:15;19.73;;;17.63;;
12314;SDS011;23886;46.614;14.276;2023-03-01T10:26:52;19.77;;;17.67;;
12314;SDS011;23886;46.614;14.276;2023-03-01T10:29:23;19.53;;;17.37;;
12314;SDS011;23886;46.614;14.276;2023-03-01T10:31:56;19.47;;;17.37;;
12314;SDS011;23886;46.614;14.276;2023-03-01T10:34:28;22.97;;;19.10;;
12314;SDS011;23886;46.614;14.276;2023-03-01T10:37:00;20.73;;;18.53;;
12314;SDS011;23886;46.614;14.276;2023-03-01T10:39:34;22.53;;;19.20;;
12314;SDS011;23886;46.614;14.276;2023-03-01T10:42:02;22.63;;;19.07;;
12314;SDS011;23886;46.614;14.276;2023-03-01T10:44:35;23.43;;;19.20;;
12314;SDS011;23886;46.614;14.276;2023-03-01T10:47:04;20.43;;;18.23;;
12314;SDS011;23886;46.614;14.276;2023-03-01T10:49:34;24.50;;;18.70;;
12314;SDS011;23886;46.614;14.276;2023-03-01T10:52:11;21.13;;;18.87;;
12314;SDS011;23886;46.614;14.276;2023-03-01T10:54:50;22.60;;;18.93;;
12314;SDS011;23886;46.614;14.276;2023-03-01T10:57:28;23.00;;;19.33;;
12314;SDS011;23886;46.614;14.276;2023-03-01T11:00:02;21.83;;;19.17;;
12314;SDS011;23886;46.614;14.276;2023-03-01T11:02:42;21.00;;;18.67;;
12314;SDS011;23886;46.614;14.276;2023-03-01T11:05:16;19.83;;;17.20;;
12314;SDS011;23886;46.614;14.276;2023-03-01T11:07:48;21.90;;;18.17;;
12314;SDS011;23886;46.614;14.276;2023-03-01T11:10:18;20.33;;;18.23;;
12314;SDS011;23886;46.614;14.276;2023-03-01T11:12:46;20.13;;;18.03;;
12314;SDS011;23886;46.614;14.276;2023-03-01T11:15:19;19.37;;;17.33;;
12314;SDS011;23886;46.614;14.276;2023-03-01T11:17:49;19.90;;;17.70;;
12314;SDS011;23886;46.614;14.276;2023-03-01T11:20:20;20.73;;;17.83;;
12314;SDS011;23886;46.614;14.276;2023-03-01T11:22:53;20.27;;;18.20;;
12314;SDS011;23886;46.614;14.276;2023-03-01T11:25:23;19.27;;;17.17;;
12314;SDS011;23886;46.614;14.276;2023-03-01T11:27:52;21.83;;;18.17;;
12314;SDS011;23886;46.614;14.276;2023-03-01T11:30:22;21.73;;;17.70;;
12314;SDS011;23886;46.614;14.276;2023-03-01T11:32:54;20.47;;;18.03;;
12314;SDS011;23886;46.614;14.276;2023-03-01T11:35:30;20.90;;;18.70;;
12314;SDS011;23886;46.614;14.276;2023-03-01T11:38:04;20.93;;;18.00;;
12314;SDS011;23886;46.614;14.276;2023-03-01T11:40:39;21.53;;;18.97;;
12314;SDS011;23886;46.614;14.276;2023-03-01T11:43:12;21.30;;;18.23;;
12314;SDS011;23886;46.614;14.276;2023-03-01T11:45:48;21.87;;;18.33;;
12314;SDS011;23886;46.614;14.276;2023-03-01T11:48:27;20.77;;;18.67;;
12314;SDS011;23886;46.614;14.276;2023-03-01T11:51:07;19.80;;;17.70;;
12314;SDS011;23886;46.614;14.276;2023-03-01T11:53:45;20.43;;;18.33;;
12314;SDS011;23886;46.614;14.276;2023-03-01T11:56:22;23.20;;;19.23;;
12314;SDS011;23886;46.614;14.276;2023-03-01T11:59:08;21.20;;;18.33;;
12314;SDS011;23886;46.614;14.276;2023-03-01T12:01:56;19.77;;;17.40;;
12314;SDS011;23886;46.614;14.276;2023-03-01T12:04:51;20.00;;;17.47;;
12314;SDS011;23886;46.614;14.276;2023-03-01T12:07:38;21.17;;;18.87;;
12314;SDS011;23886;46.614;14.276;2023-03-01T12:10:17;20.53;;;18.33;;
12314;SDS011;23886;46.614;14.276;2023-03-01T12:12:52;20.63;;;18.10;;
12314;SDS011;23886;46.614;14.276;2023-03-01T12:15:57;20.77;;;18.30;;
12314;SDS011;23886;46.614;14.276;2023-03-01T12:18:47;19.50;;;17.40;;
12314;SDS011;23886;46.614;14.276;2023-03-01T12:21:28;19.67;;;17.47;;
12314;SDS011;23886;46.614;14.276;2023-03-01T12:24:20;22.53;;;18.60;;
12314;SDS011;23886;46.614;14.276;2023-03-01T12:27:06;19.77;;;17.67;;
12314;SDS011;23886;46.614;14.276;2023-03-01T12:29:45;19.63;;;17.53;;
12314;SDS011;23886;46.614;14.276;2023-03-01T12:32:25;20.30;;;18.07;;
12314;SDS011;23886;46.614;14.276;2023-03-01T12:35:21;22.00;;;18.67;;
12314;SDS011;23886;46.614;14.276;2023-03-01T12:38:06;19.47;;;17.40;;
12314;SDS011;23886;46.614;14.276;2023-03-01T12:40:53;20.20;;;17.97;;
12314;SDS011;23886;46.614;14.276;2023-03-01T12:43:38;21.03;;;18.23;;
12314;SDS011;23886;46.614;14.276;2023-03-01T12:46:21;19.80;;;17.70;;
12314;SDS011;23886;46.614;14.276;2023-03-01T12:48:56;20.63;;;17.90;;
12314;SDS011;23886;46.614;14.276;2023-03-01T12:51:31;23.13;;;18.33;;
12314;SDS011;23886;46.614;14.276;2023-03-01T12:54:01;20.90;;;18.70;;
12314;SDS011;23886;46.614;14.276;2023-03-01T12:56:39;21.33;;;18.13;;
12314;SDS011;23886;46.614;14.276;2023-03-01T12:59:09;20.23;;;18.07;;
12314;SDS011;23886;46.614;14.276;2023-03-01T13:01:42;20.87;;;18.50;;
12314;SDS011;23886;46.614;14.276;2023-03-01T13:07:18;22.70;;;19.33;;
12314;SDS011;23886;46.614;14.276;2023-03-01T13:09:55;22.20;;;19.17;;
12314;SDS011;23886;46.614;14.276;2023-03-01T13:12:43;24.43;;;20.03;;
12314;SDS011;23886;46.614;14.276;2023-03-01T13:15:24;21.60;;;19.20;;
12314;SDS011;23886;46.614;14.276;2023-03-01T13:17:53;21.83;;;19.13;;
12314;SDS011;23886;46.614;14.276;2023-03-01T13:20:23;22.13;;;19.57;;
12314;SDS011;23886;46.614;14.276;2023-03-01T13:23:00;21.17;;;18.87;;
12314;SDS011;23886;46.614;14.276;2023-03-01T13:25:30;21.70;;;19.03;;
12314;SDS011;23886;46.614;14.276;2023-03-01T13:30:59;21.07;;;18.77;;
12314;SDS011;23886;46.614;14.276;2023-03-01T13:33:42;20.33;;;18.17;;
12314;SDS011;23886;46.614;14.276;2023-03-01T13:36:11;24.23;;;21.60;;
12314;SDS011;23886;46.614;14.276;2023-03-01T13:41:58;23.57;;;19.97;;
12314;SDS011;23886;46.614;14.276;2023-03-01T13:44:26;23.13;;;20.60;;
12314;SDS011;23886;46.614;14.276;2023-03-01T13:47:01;22.87;;;20.03;;
12314;SDS011;23886;46.614;14.276;2023-03-01T13:49:43;23.37;;;20.07;;
12314;SDS011;23886;46.614;14.276;2023-03-01T13:52:36;21.93;;;19.67;;
12314;SDS011;23886;46.614;14.276;2023-03-01T13:55:06;23.17;;;20.27;;
12314;SDS011;23886;46.614;14.276;2023-03-01T13:57:44;23.53;;;19.90;;
12314;SDS011;23886;46.614;14.276;2023-03-01T14:00:27;21.83;;;19.50;;
12314;SDS011;23886;46.614;14.276;2023-03-01T14:03:09;22.10;;;19.77;;
12314;SDS011;23886;46.614;14.276;2023-03-01T14:05:38;24.20;;;20.00;;
12314;SDS011;23886;46.614;14.276;2023-03-01T14:08:17;22.03;;;19.53;;
12314;SDS011;23886;46.614;14.276;2023-03-01T14:10:49;22.17;;;18.97;;
12314;SDS011;23886;46.614;14.276;2023-03-01T14:13:47;22.30;;;19.50;;
12314;SDS011;23886;46.614;14.276;2023-03-01T14:16:25;21.50;;;18.50;;
12314;SDS011;23886;46.614;14.276;2023-03-01T14:19:04;23.53;;;20.40;;
12314;SDS011;23886;46.614;14.276;2023-03-01T14:21:42;23.40;;;20.90;;
12314;SDS011;23886;46.614;14.276;2023-03-01T14:24:15;25.17;;;21.73;;
12314;SDS011;23886;46.614;14.276;2023-03-01T14:26:44;25.37;;;20.07;;
12314;SDS011;23886;46.614;14.276;2023-03-01T14:29:24;23.00;;;20.37;;
12314;SDS011;23886;46.614;14.276;2023-03-01T14:31:52;22.47;;;18.90;;
12314;SDS011;23886;46.614;14.276;2023-03-01T14:34:21;23.00;;;19.87;;
12314;SDS011;23886;46.614;14.276;2023-03-01T14:36:49;22.10;;;19.77;;
12314;SDS011;23886;46.614;14.276;2023-03-01T14:39:17;24.13;;;20.70;;